Idrinskoe, Russia
Current Conditions -  °F | °C
As of 3:30 AM on Wednesday 28 Jan 2015 (Local Time) from UNAA Reporting Station
Overcast Overcast  
Wind Chill: -3°   Ceiling: 10000
Heat Index: 12°   Visibility: 6mi
Dew Point:   Wind: 13mph
Humidity: 57%   Direction: 180°S
Pressure: 30.39"   Gusts: NA
Location:  54.37°N, 92.13°E
Report Text: UNAA 272030Z 18006MPS 9999 SCT040 OVC100 M11/M18 Q1029 NOSIGRMK QFE749 52190055
Loading
Personal Weather Stations






























Interactive Weather Map New forecast layout! Learn more

10-Day Weather Forecast

Advertisements
Track Severe Weather on mobile